sensor_id;sensor_type;location;lat;lon;timestamp;temperature;humidity
34542;DHT22;20784;51.332;12.410;2023-05-17T00:01:43;10.20;1.00
34542;DHT22;20784;51.332;12.410;2023-05-17T00:04:09;10.10;1.00
34542;DHT22;20784;51.332;12.410;2023-05-17T00:06:35;10.20;1.00
34542;DHT22;20784;51.332;12.410;2023-05-17T00:09:00;10.20;1.00
34542;DHT22;20784;51.332;12.410;2023-05-17T00:11:26;10.20;1.00
34542;DHT22;20784;51.332;12.410;2023-05-17T00:13:51;10.20;1.00
34542;DHT22;20784;51.332;12.410;2023-05-17T00:16:17;10.10;99.90
34542;DHT22;20784;51.332;12.410;2023-05-17T00:18:45;10.00;99.90
34542;DHT22;20784;51.332;12.410;2023-05-17T00:21:10;9.90;1.00
34542;DHT22;20784;51.332;12.410;2023-05-17T00:23:36;10.00;1.00
34542;DHT22;20784;51.332;12.410;2023-05-17T00:26:01;9.90;99.90
34542;DHT22;20784;51.332;12.410;2023-05-17T00:28:27;10.00;99.90
34542;DHT22;20784;51.332;12.410;2023-05-17T00:30:52;10.00;99.90
34542;DHT22;20784;51.332;12.410;2023-05-17T00:33:18;9.90;99.90
34542;DHT22;20784;51.332;12.410;2023-05-17T00:35:44;9.90;99.90
34542;DHT22;20784;51.332;12.410;2023-05-17T00:38:09;10.00;1.00
34542;DHT22;20784;51.332;12.410;2023-05-17T00:40:38;9.90;1.00
34542;DHT22;20784;51.332;12.410;2023-05-17T00:43:06;9.80;15.70
34542;DHT22;20784;51.332;12.410;2023-05-17T00:45:31;9.80;1.00
34542;DHT22;20784;51.332;12.410;2023-05-17T00:47:59;9.80;99.90
34542;DHT22;20784;51.332;12.410;2023-05-17T00:50:25;9.80;99.90
34542;DHT22;20784;51.332;12.410;2023-05-17T00:52:50;9.80;99.90
34542;DHT22;20784;51.332;12.410;2023-05-17T00:55:16;9.70;99.90
34542;DHT22;20784;51.332;12.410;2023-05-17T00:57:44;9.70;1.00
34542;DHT22;20784;51.332;12.410;2023-05-17T01:00:10;9.60;1.00
34542;DHT22;20784;51.332;12.410;2023-05-17T01:02:36;9.60;79.50
34542;DHT22;20784;51.332;12.410;2023-05-17T01:05:02;9.60;79.90
34542;DHT22;20784;51.332;12.410;2023-05-17T01:07:28;9.60;99.90
34542;DHT22;20784;51.332;12.410;2023-05-17T01:09:54;9.60;99.90
34542;DHT22;20784;51.332;12.410;2023-05-17T01:15:18;9.60;99.90
34542;DHT22;20784;51.332;12.410;2023-05-17T01:20:37;9.50;1.00
34542;DHT22;20784;51.332;12.410;2023-05-17T01:26:15;9.40;1.00
34542;DHT22;20784;51.332;12.410;2023-05-17T01:28:48;9.40;99.90
34542;DHT22;20784;51.332;12.410;2023-05-17T01:31:17;9.40;99.90
34542;DHT22;20784;51.332;12.410;2023-05-17T01:33:44;9.30;99.90
34542;DHT22;20784;51.332;12.410;2023-05-17T01:36:09;9.30;99.90
34542;DHT22;20784;51.332;12.410;2023-05-17T01:38:35;9.30;99.90
34542;DHT22;20784;51.332;12.410;2023-05-17T01:43:34;9.30;99.90
34542;DHT22;20784;51.332;12.410;2023-05-17T01:48:41;9.20;99.90
34542;DHT22;20784;51.332;12.410;2023-05-17T01:51:13;9.30;99.90
34542;DHT22;20784;51.332;12.410;2023-05-17T01:53:50;9.30;99.90
34542;DHT22;20784;51.332;12.410;2023-05-17T01:56:24;9.20;99.90
34542;DHT22;20784;51.332;12.410;2023-05-17T01:58:51;9.20;1.00
34542;DHT22;20784;51.332;12.410;2023-05-17T02:01:18;9.10;1.00
34542;DHT22;20784;51.332;12.410;2023-05-17T02:03:47;9.10;1.00
34542;DHT22;20784;51.332;12.410;2023-05-17T02:06:13;9.10;1.00
34542;DHT22;20784;51.332;12.410;2023-05-17T02:08:39;9.10;1.00
34542;DHT22;20784;51.332;12.410;2023-05-17T02:11:05;9.10;1.00
34542;DHT22;20784;51.332;12.410;2023-05-17T02:13:30;9.10;1.00
34542;DHT22;20784;51.332;12.410;2023-05-17T02:16:02;9.10;1.00
34542;DHT22;20784;51.332;12.410;2023-05-17T02:18:28;9.10;1.00
34542;DHT22;20784;51.332;12.410;2023-05-17T02:20:54;9.10;1.00
34542;DHT22;20784;51.332;12.410;2023-05-17T02:23:19;9.00;1.00
34542;DHT22;20784;51.332;12.410;2023-05-17T02:25:45;9.00;1.00
34542;DHT22;20784;51.332;12.410;2023-05-17T02:28:11;8.90;1.00
34542;DHT22;20784;51.332;12.410;2023-05-17T02:30:37;9.00;1.00
34542;DHT22;20784;51.332;12.410;2023-05-17T02:33:06;8.80;1.00
34542;DHT22;20784;51.332;12.410;2023-05-17T02:35:32;8.90;1.00
34542;DHT22;20784;51.332;12.410;2023-05-17T02:37:57;8.90;1.00
34542;DHT22;20784;51.332;12.410;2023-05-17T02:40:23;8.90;1.00
34542;DHT22;20784;51.332;12.410;2023-05-17T02:42:48;8.90;1.00
34542;DHT22;20784;51.332;12.410;2023-05-17T02:45:17;8.90;1.00
34542;DHT22;20784;51.332;12.410;2023-05-17T02:47:42;8.90;1.00
34542;DHT22;20784;51.332;12.410;2023-05-17T02:50:08;8.80;1.00
34542;DHT22;20784;51.332;12.410;2023-05-17T02:52:37;8.80;1.00
34542;DHT22;20784;51.332;12.410;2023-05-17T02:55:03;8.70;1.00
34542;DHT22;20784;51.332;12.410;2023-05-17T02:57:28;8.70;1.00
34542;DHT22;20784;51.332;12.410;2023-05-17T02:59:57;8.70;1.00
34542;DHT22;20784;51.332;12.410;2023-05-17T03:02:23;8.70;1.00
34542;DHT22;20784;51.332;12.410;2023-05-17T03:04:48;8.70;1.00
34542;DHT22;20784;51.332;12.410;2023-05-17T03:07:14;8.70;1.00
34542;DHT22;20784;51.332;12.410;2023-05-17T03:09:40;8.60;1.00
34542;DHT22;20784;51.332;12.410;2023-05-17T03:12:07;8.70;1.00
34542;DHT22;20784;51.332;12.410;2023-05-17T03:14:32;8.70;1.00
34542;DHT22;20784;51.332;12.410;2023-05-17T03:16:58;8.70;1.00
34542;DHT22;20784;51.332;12.410;2023-05-17T03:19:23;8.70;1.00
34542;DHT22;20784;51.332;12.410;2023-05-17T03:21:49;8.70;1.00
34542;DHT22;20784;51.332;12.410;2023-05-17T03:24:15;8.60;1.00
34542;DHT22;20784;51.332;12.410;2023-05-17T03:26:40;8.70;1.00
34542;DHT22;20784;51.332;12.410;2023-05-17T03:29:06;8.70;1.00
34542;DHT22;20784;51.332;12.410;2023-05-17T03:31:31;8.70;1.00
34542;DHT22;20784;51.332;12.410;2023-05-17T03:33:57;8.70;1.00
34542;DHT22;20784;51.332;12.410;2023-05-17T03:36:22;8.70;1.00
34542;DHT22;20784;51.332;12.410;2023-05-17T03:38:48;8.70;1.00
34542;DHT22;20784;51.332;12.410;2023-05-17T03:41:14;8.70;1.00
34542;DHT22;20784;51.332;12.410;2023-05-17T03:43:39;8.60;1.30
34542;DHT22;20784;51.332;12.410;2023-05-17T03:46:05;8.70;1.00
34542;DHT22;20784;51.332;12.410;2023-05-17T03:48:31;8.70;1.00
34542;DHT22;20784;51.332;12.410;2023-05-17T03:50:59;8.70;1.00
34542;DHT22;20784;51.332;12.410;2023-05-17T03:53:24;8.70;5.40
34542;DHT22;20784;51.332;12.410;2023-05-17T03:55:50;8.70;1.00
34542;DHT22;20784;51.332;12.410;2023-05-17T03:58:16;8.60;7.80
34542;DHT22;20784;51.332;12.410;2023-05-17T04:00:45;8.70;11.80
34542;DHT22;20784;51.332;12.410;2023-05-17T04:03:10;8.70;12.70
34542;DHT22;20784;51.332;12.410;2023-05-17T04:05:38;8.80;2.10
34542;DHT22;20784;51.332;12.410;2023-05-17T04:08:10;8.80;1.00
34542;DHT22;20784;51.332;12.410;2023-05-17T04:10:36;8.90;1.00
34542;DHT22;20784;51.332;12.410;2023-05-17T04:13:06;8.90;1.00
34542;DHT22;20784;51.332;12.410;2023-05-17T04:15:31;8.90;1.00
34542;DHT22;20784;51.332;12.410;2023-05-17T04:17:57;9.00;1.00
34542;DHT22;20784;51.332;12.410;2023-05-17T04:20:23;9.10;1.00
34542;DHT22;20784;51.332;12.410;2023-05-17T04:22:48;9.10;1.00
34542;DHT22;20784;51.332;12.410;2023-05-17T04:25:14;9.10;1.00
34542;DHT22;20784;51.332;12.410;2023-05-17T04:27:40;9.20;1.00
34542;DHT22;20784;51.332;12.410;2023-05-17T04:30:06;9.10;1.00
34542;DHT22;20784;51.332;12.410;2023-05-17T04:32:34;9.20;1.00
34542;DHT22;20784;51.332;12.410;2023-05-17T04:35:03;9.20;1.00
34542;DHT22;20784;51.332;12.410;2023-05-17T04:37:29;9.20;1.00
34542;DHT22;20784;51.332;12.410;2023-05-17T04:39:55;9.20;1.00
34542;DHT22;20784;51.332;12.410;2023-05-17T04:42:20;9.30;1.00
34542;DHT22;20784;51.332;12.410;2023-05-17T04:44:46;9.30;1.00
34542;DHT22;20784;51.332;12.410;2023-05-17T04:47:11;9.20;1.00
34542;DHT22;20784;51.332;12.410;2023-05-17T04:49:37;9.40;1.00
34542;DHT22;20784;51.332;12.410;2023-05-17T04:52:03;9.40;1.00
34542;DHT22;20784;51.332;12.410;2023-05-17T04:54:29;9.40;1.00
34542;DHT22;20784;51.332;12.410;2023-05-17T04:56:54;9.40;1.00
34542;DHT22;20784;51.332;12.410;2023-05-17T04:59:20;9.50;1.00
34542;DHT22;20784;51.332;12.410;2023-05-17T05:01:45;9.60;1.00
34542;DHT22;20784;51.332;12.410;2023-05-17T05:04:11;9.60;1.00
34542;DHT22;20784;51.332;12.410;2023-05-17T05:06:36;9.70;1.00
34542;DHT22;20784;51.332;12.410;2023-05-17T05:09:02;9.70;1.00
34542;DHT22;20784;51.332;12.410;2023-05-17T05:11:31;9.70;1.00
34542;DHT22;20784;51.332;12.410;2023-05-17T05:14:05;9.80;1.00
34542;DHT22;20784;51.332;12.410;2023-05-17T05:16:33;9.80;1.00
34542;DHT22;20784;51.332;12.410;2023-05-17T05:19:01;9.80;1.00
34542;DHT22;20784;51.332;12.410;2023-05-17T05:21:34;9.90;1.00
34542;DHT22;20784;51.332;12.410;2023-05-17T05:24:00;10.00;1.00
34542;DHT22;20784;51.332;12.410;2023-05-17T05:26:26;10.00;1.00
34542;DHT22;20784;51.332;12.410;2023-05-17T05:28:51;10.00;1.00
34542;DHT22;20784;51.332;12.410;2023-05-17T05:31:35;10.10;1.00
34542;DHT22;20784;51.332;12.410;2023-05-17T05:34:01;10.00;1.00
34542;DHT22;20784;51.332;12.410;2023-05-17T05:36:38;10.10;1.00
34542;DHT22;20784;51.332;12.410;2023-05-17T05:42:25;10.40;1.00
34542;DHT22;20784;51.332;12.410;2023-05-17T05:44:51;10.60;1.00
34542;DHT22;20784;51.332;12.410;2023-05-17T05:47:17;10.60;1.00
34542;DHT22;20784;51.332;12.410;2023-05-17T05:49:43;10.70;1.00
34542;DHT22;20784;51.332;12.410;2023-05-17T05:52:17;10.90;1.00
34542;DHT22;20784;51.332;12.410;2023-05-17T05:54:43;11.00;1.00
34542;DHT22;20784;51.332;12.410;2023-05-17T05:57:19;11.00;1.00
34542;DHT22;20784;51.332;12.410;2023-05-17T05:59:48;11.20;1.00
34542;DHT22;20784;51.332;12.410;2023-05-17T06:02:13;11.20;1.00
34542;DHT22;20784;51.332;12.410;2023-05-17T06:04:39;11.20;1.00
34542;DHT22;20784;51.332;12.410;2023-05-17T06:07:05;11.20;1.00
34542;DHT22;20784;51.332;12.410;2023-05-17T06:09:33;11.20;1.00
34542;DHT22;20784;51.332;12.410;2023-05-17T06:11:59;11.30;1.00
34542;DHT22;20784;51.332;12.410;2023-05-17T06:14:25;11.40;1.00
34542;DHT22;20784;51.332;12.410;2023-05-17T06:16:54;11.30;1.00
34542;DHT22;20784;51.332;12.410;2023-05-17T06:19:28;11.30;1.00
34542;DHT22;20784;51.332;12.410;2023-05-17T06:21:59;11.30;1.00
34542;DHT22;20784;51.332;12.410;2023-05-17T06:24:27;11.30;1.00
34542;DHT22;20784;51.332;12.410;2023-05-17T06:27:14;11.30;1.00
34542;DHT22;20784;51.332;12.410;2023-05-17T06:29:42;11.30;1.00
34542;DHT22;20784;51.332;12.410;2023-05-17T06:32:17;11.40;1.00
34542;DHT22;20784;51.332;12.410;2023-05-17T06:35:00;11.50;1.00
34542;DHT22;20784;51.332;12.410;2023-05-17T06:37:32;11.50;1.00
34542;DHT22;20784;51.332;12.410;2023-05-17T06:40:07;11.50;99.90
34542;DHT22;20784;51.332;12.410;2023-05-17T06:42:34;11.60;1.00
34542;DHT22;20784;51.332;12.410;2023-05-17T06:45:01;11.70;1.00
34542;DHT22;20784;51.332;12.410;2023-05-17T06:47:30;11.80;99.90
34542;DHT22;20784;51.332;12.410;2023-05-17T06:49:58;11.80;99.90
34542;DHT22;20784;51.332;12.410;2023-05-17T06:52:26;11.90;99.90
34542;DHT22;20784;51.332;12.410;2023-05-17T06:54:55;11.90;99.90
34542;DHT22;20784;51.332;12.410;2023-05-17T06:57:20;12.00;99.90
34542;DHT22;20784;51.332;12.410;2023-05-17T06:59:48;12.00;70.40
34542;DHT22;20784;51.332;12.410;2023-05-17T07:02:14;11.90;35.90
34542;DHT22;20784;51.332;12.410;2023-05-17T07:04:43;12.00;7.70
34542;DHT22;20784;51.332;12.410;2023-05-17T07:07:11;12.20;1.00
34542;DHT22;20784;51.332;12.410;2023-05-17T07:09:37;12.20;1.00
34542;DHT22;20784;51.332;12.410;2023-05-17T07:12:18;12.00;1.00
34542;DHT22;20784;51.332;12.410;2023-05-17T07:14:47;11.80;99.90
34542;DHT22;20784;51.332;12.410;2023-05-17T07:17:16;11.80;99.90
34542;DHT22;20784;51.332;12.410;2023-05-17T07:19:44;12.00;99.90
34542;DHT22;20784;51.332;12.410;2023-05-17T07:22:15;12.00;99.90
34542;DHT22;20784;51.332;12.410;2023-05-17T07:24:41;12.10;83.40
34542;DHT22;20784;51.332;12.410;2023-05-17T07:27:26;12.40;1.00
34542;DHT22;20784;51.332;12.410;2023-05-17T07:29:54;12.70;99.90
34542;DHT22;20784;51.332;12.410;2023-05-17T07:32:38;12.60;99.90
34542;DHT22;20784;51.332;12.410;2023-05-17T07:35:20;12.50;99.90
34542;DHT22;20784;51.332;12.410;2023-05-17T07:37:57;12.70;1.00
34542;DHT22;20784;51.332;12.410;2023-05-17T07:40:22;12.90;99.90
34542;DHT22;20784;51.332;12.410;2023-05-17T07:43:01;13.00;99.90
34542;DHT22;20784;51.332;12.410;2023-05-17T07:45:27;13.00;1.00
34542;DHT22;20784;51.332;12.410;2023-05-17T07:48:07;12.90;1.00
34542;DHT22;20784;51.332;12.410;2023-05-17T07:50:35;12.90;1.00
34542;DHT22;20784;51.332;12.410;2023-05-17T07:53:01;12.90;1.00
34542;DHT22;20784;51.332;12.410;2023-05-17T07:55:30;13.20;99.90
34542;DHT22;20784;51.332;12.410;2023-05-17T07:57:55;13.40;1.00
34542;DHT22;20784;51.332;12.410;2023-05-17T08:00:33;13.40;1.00
34542;DHT22;20784;51.332;12.410;2023-05-17T08:02:59;13.50;99.90
34542;DHT22;20784;51.332;12.410;2023-05-17T08:05:33;13.70;99.90
34542;DHT22;20784;51.332;12.410;2023-05-17T08:07:58;13.70;99.90
34542;DHT22;20784;51.332;12.410;2023-05-17T08:10:25;13.70;1.00
34542;DHT22;20784;51.332;12.410;2023-05-17T08:12:52;13.70;1.00
34542;DHT22;20784;51.332;12.410;2023-05-17T08:15:17;13.80;99.90
34542;DHT22;20784;51.332;12.410;2023-05-17T08:17:46;14.00;50.60
34542;DHT22;20784;51.332;12.410;2023-05-17T08:20:12;14.10;1.00
34542;DHT22;20784;51.332;12.410;2023-05-17T08:22:37;14.00;1.00
34542;DHT22;20784;51.332;12.410;2023-05-17T08:25:03;13.90;1.00
34542;DHT22;20784;51.332;12.410;2023-05-17T08:27:29;13.70;1.00
34542;DHT22;20784;51.332;12.410;2023-05-17T08:29:58;13.50;1.00
34542;DHT22;20784;51.332;12.410;2023-05-17T08:32:33;13.40;1.00
34542;DHT22;20784;51.332;12.410;2023-05-17T08:35:01;13.60;1.00
34542;DHT22;20784;51.332;12.410;2023-05-17T08:37:28;13.60;1.00
34542;DHT22;20784;51.332;12.410;2023-05-17T08:39:53;13.50;99.90
34542;DHT22;20784;51.332;12.410;2023-05-17T08:42:22;13.40;99.90
34542;DHT22;20784;51.332;12.410;2023-05-17T08:44:54;13.20;1.00
34542;DHT22;20784;51.332;12.410;2023-05-17T08:47:23;13.20;1.00
34542;DHT22;20784;51.332;12.410;2023-05-17T08:49:54;13.20;1.00
34542;DHT22;20784;51.332;12.410;2023-05-17T08:52:21;13.20;87.30
34542;DHT22;20784;51.332;12.410;2023-05-17T08:54:47;13.30;1.00
34542;DHT22;20784;51.332;12.410;2023-05-17T08:57:14;13.70;1.00
34542;DHT22;20784;51.332;12.410;2023-05-17T08:59:47;14.20;1.00
34542;DHT22;20784;51.332;12.410;2023-05-17T09:02:18;14.30;99.90
34542;DHT22;20784;51.332;12.410;2023-05-17T09:04:46;14.20;99.90
34542;DHT22;20784;51.332;12.410;2023-05-17T09:07:21;13.90;99.90
34542;DHT22;20784;51.332;12.410;2023-05-17T09:09:50;13.70;88.40
34542;DHT22;20784;51.332;12.410;2023-05-17T09:12:17;13.60;1.00
34542;DHT22;20784;51.332;12.410;2023-05-17T09:14:43;13.40;1.00
34542;DHT22;20784;51.332;12.410;2023-05-17T09:17:16;13.30;1.00
34542;DHT22;20784;51.332;12.410;2023-05-17T09:19:51;13.30;1.00
34542;DHT22;20784;51.332;12.410;2023-05-17T09:22:19;13.40;1.00
34542;DHT22;20784;51.332;12.410;2023-05-17T09:25:08;13.30;1.00
34542;DHT22;20784;51.332;12.410;2023-05-17T09:27:34;13.50;5.60
34542;DHT22;20784;51.332;12.410;2023-05-17T09:30:09;13.60;22.60
34542;DHT22;20784;51.332;12.410;2023-05-17T09:32:48;14.00;97.90
34542;DHT22;20784;51.332;12.410;2023-05-17T09:35:29;14.50;58.40
34542;DHT22;20784;51.332;12.410;2023-05-17T09:38:16;14.50;1.00
34542;DHT22;20784;51.332;12.410;2023-05-17T09:40:53;14.50;99.90
34542;DHT22;20784;51.332;12.410;2023-05-17T09:43:24;14.60;99.90
34542;DHT22;20784;51.332;12.410;2023-05-17T09:45:57;14.70;99.90
34542;DHT22;20784;51.332;12.410;2023-05-17T09:48:26;15.00;99.90
34542;DHT22;20784;51.332;12.410;2023-05-17T09:50:55;15.10;99.90
34542;DHT22;20784;51.332;12.410;2023-05-17T09:53:30;15.00;99.90
34542;DHT22;20784;51.332;12.410;2023-05-17T09:55:58;14.70;99.90
34542;DHT22;20784;51.332;12.410;2023-05-17T09:58:27;14.60;1.00
34542;DHT22;20784;51.332;12.410;2023-05-17T10:01:01;14.70;1.00
34542;DHT22;20784;51.332;12.410;2023-05-17T10:03:33;14.80;1.00
34542;DHT22;20784;51.332;12.410;2023-05-17T10:06:01;15.20;99.90
34542;DHT22;20784;51.332;12.410;2023-05-17T10:08:31;15.40;99.90
34542;DHT22;20784;51.332;12.410;2023-05-17T10:11:02;15.40;99.90
34542;DHT22;20784;51.332;12.410;2023-05-17T10:13:41;15.40;99.90
34542;DHT22;20784;51.332;12.410;2023-05-17T10:16:08;15.30;99.90
34542;DHT22;20784;51.332;12.410;2023-05-17T10:18:37;15.10;99.90
34542;DHT22;20784;51.332;12.410;2023-05-17T10:21:07;15.30;99.90
34542;DHT22;20784;51.332;12.410;2023-05-17T10:23:36;15.10;99.90
34542;DHT22;20784;51.332;12.410;2023-05-17T10:26:03;15.40;99.90
34542;DHT22;20784;51.332;12.410;2023-05-17T10:28:30;15.80;6.00
34542;DHT22;20784;51.332;12.410;2023-05-17T10:31:00;16.20;1.00
34542;DHT22;20784;51.332;12.410;2023-05-17T10:33:36;16.30;1.00
34542;DHT22;20784;51.332;12.410;2023-05-17T10:36:08;16.20;1.00
34542;DHT22;20784;51.332;12.410;2023-05-17T10:38:35;16.20;1.00
34542;DHT22;20784;51.332;12.410;2023-05-17T10:41:01;16.10;1.00
34542;DHT22;20784;51.332;12.410;2023-05-17T10:43:28;16.20;1.00
34542;DHT22;20784;51.332;12.410;2023-05-17T10:45:56;16.30;1.00
34542;DHT22;20784;51.332;12.410;2023-05-17T10:48:22;16.20;1.00
34542;DHT22;20784;51.332;12.410;2023-05-17T10:50:52;16.30;99.90
34542;DHT22;20784;51.332;12.410;2023-05-17T10:53:26;17.10;1.00
34542;DHT22;20784;51.332;12.410;2023-05-17T10:56:13;17.90;99.90
34542;DHT22;20784;51.332;12.410;2023-05-17T10:58:39;18.20;99.90
34542;DHT22;20784;51.332;12.410;2023-05-17T11:01:07;17.90;99.90
34542;DHT22;20784;51.332;12.410;2023-05-17T11:03:33;17.60;99.90
34542;DHT22;20784;51.332;12.410;2023-05-17T11:06:12;17.20;99.90
34542;DHT22;20784;51.332;12.410;2023-05-17T11:08:47;16.70;99.90
34542;DHT22;20784;51.332;12.410;2023-05-17T11:11:30;16.40;99.90
34542;DHT22;20784;51.332;12.410;2023-05-17T11:13:56;16.20;99.90
34542;DHT22;20784;51.332;12.410;2023-05-17T11:16:32;16.20;99.90
34542;DHT22;20784;51.332;12.410;2023-05-17T11:19:07;16.40;99.90
34542;DHT22;20784;51.332;12.410;2023-05-17T11:21:53;16.90;99.90
34542;DHT22;20784;51.332;12.410;2023-05-17T11:24:24;17.30;99.90
34542;DHT22;20784;51.332;12.410;2023-05-17T11:27:12;17.50;99.90
34542;DHT22;20784;51.332;12.410;2023-05-17T11:29:46;17.60;99.90
34542;DHT22;20784;51.332;12.410;2023-05-17T11:32:27;17.90;99.90
34542;DHT22;20784;51.332;12.410;2023-05-17T11:35:01;18.40;99.90
34542;DHT22;20784;51.332;12.410;2023-05-17T11:37:32;18.40;99.90
34542;DHT22;20784;51.332;12.410;2023-05-17T11:40:06;18.60;99.90
34542;DHT22;20784;51.332;12.410;2023-05-17T11:42:42;18.80;99.90
34542;DHT22;20784;51.332;12.410;2023-05-17T11:45:09;19.00;99.90
34542;DHT22;20784;51.332;12.410;2023-05-17T11:47:38;19.40;24.00
34542;DHT22;20784;51.332;12.410;2023-05-17T11:50:06;19.20;1.00
34542;DHT22;20784;51.332;12.410;2023-05-17T11:52:34;19.20;1.00
34542;DHT22;20784;51.332;12.410;2023-05-17T11:55:00;19.40;1.00
34542;DHT22;20784;51.332;12.410;2023-05-17T11:57:30;19.00;1.00
34542;DHT22;20784;51.332;12.410;2023-05-17T12:00:02;18.50;1.00
34542;DHT22;20784;51.332;12.410;2023-05-17T12:02:30;18.60;5.20
34542;DHT22;20784;51.332;12.410;2023-05-17T12:04:57;18.60;1.00
34542;DHT22;20784;51.332;12.410;2023-05-17T12:07:28;18.20;1.00
34542;DHT22;20784;51.332;12.410;2023-05-17T12:09:54;18.10;1.00
34542;DHT22;20784;51.332;12.410;2023-05-17T12:12:25;18.30;1.00
34542;DHT22;20784;51.332;12.410;2023-05-17T12:14:59;18.60;1.00
34542;DHT22;20784;51.332;12.410;2023-05-17T12:17:30;18.40;1.00
34542;DHT22;20784;51.332;12.410;2023-05-17T12:20:17;18.00;1.00
34542;DHT22;20784;51.332;12.410;2023-05-17T12:23:01;17.70;1.00
34542;DHT22;20784;51.332;12.410;2023-05-17T12:25:29;17.90;1.00
34542;DHT22;20784;51.332;12.410;2023-05-17T12:28:17;17.90;1.00
34542;DHT22;20784;51.332;12.410;2023-05-17T12:30:51;18.20;1.00
34542;DHT22;20784;51.332;12.410;2023-05-17T12:33:17;18.50;2.60
34542;DHT22;20784;51.332;12.410;2023-05-17T12:35:52;18.70;1.00
34542;DHT22;20784;51.332;12.410;2023-05-17T12:38:40;18.80;1.00
34542;DHT22;20784;51.332;12.410;2023-05-17T12:41:07;18.30;1.00
34542;DHT22;20784;51.332;12.410;2023-05-17T12:43:37;18.20;1.00
34542;DHT22;20784;51.332;12.410;2023-05-17T12:46:11;17.90;1.00
34542;DHT22;20784;51.332;12.410;2023-05-17T12:48:39;18.10;1.00
34542;DHT22;20784;51.332;12.410;2023-05-17T12:51:18;18.30;1.00
34542;DHT22;20784;51.332;12.410;2023-05-17T12:53:51;18.40;1.00
34542;DHT22;20784;51.332;12.410;2023-05-17T12:56:27;18.60;1.00
34542;DHT22;20784;51.332;12.410;2023-05-17T13:01:47;18.50;1.00
34542;DHT22;20784;51.332;12.410;2023-05-17T13:04:14;18.50;1.00
34542;DHT22;20784;51.332;12.410;2023-05-17T13:06:51;18.30;1.00
34542;DHT22;20784;51.332;12.410;2023-05-17T13:09:18;18.30;1.00
34542;DHT22;20784;51.332;12.410;2023-05-17T13:14:36;18.70;1.00
34542;DHT22;20784;51.332;12.410;2023-05-17T13:17:18;18.90;1.00
34542;DHT22;20784;51.332;12.410;2023-05-17T13:19:46;19.00;1.00
34542;DHT22;20784;51.332;12.410;2023-05-17T13:22:12;19.10;1.00
34542;DHT22;20784;51.332;12.410;2023-05-17T13:24:39;19.20;1.00
34542;DHT22;20784;51.332;12.410;2023-05-17T13:27:05;19.00;1.00
34542;DHT22;20784;51.332;12.410;2023-05-17T13:29:32;18.70;1.00
34542;DHT22;20784;51.332;12.410;2023-05-17T13:31:59;18.40;1.00
34542;DHT22;20784;51.332;12.410;2023-05-17T13:34:24;18.20;1.00
34542;DHT22;20784;51.332;12.410;2023-05-17T13:36:52;18.20;1.00
34542;DHT22;20784;51.332;12.410;2023-05-17T13:39:18;18.30;1.00
34542;DHT22;20784;51.332;12.410;2023-05-17T13:41:45;18.10;1.00
34542;DHT22;20784;51.332;12.410;2023-05-17T13:44:10;17.60;1.00
34542;DHT22;20784;51.332;12.410;2023-05-17T13:46:36;17.40;1.00
34542;DHT22;20784;51.332;12.410;2023-05-17T13:49:02;17.40;1.00
34542;DHT22;20784;51.332;12.410;2023-05-17T13:51:29;17.60;1.00
34542;DHT22;20784;51.332;12.410;2023-05-17T13:53:54;17.80;1.00
34542;DHT22;20784;51.332;12.410;2023-05-17T13:56:20;17.80;1.00
34542;DHT22;20784;51.332;12.410;2023-05-17T13:58:48;18.00;1.00
34542;DHT22;20784;51.332;12.410;2023-05-17T14:01:17;18.00;1.00
34542;DHT22;20784;51.332;12.410;2023-05-17T14:03:46;18.00;1.00
34542;DHT22;20784;51.332;12.410;2023-05-17T14:06:11;18.10;1.00
34542;DHT22;20784;51.332;12.410;2023-05-17T14:08:37;17.90;1.00
34542;DHT22;20784;51.332;12.410;2023-05-17T14:11:03;17.90;1.00
34542;DHT22;20784;51.332;12.410;2023-05-17T14:13:34;18.00;1.00
34542;DHT22;20784;51.332;12.410;2023-05-17T14:16:00;18.10;1.00
34542;DHT22;20784;51.332;12.410;2023-05-17T14:18:26;18.30;1.00
34542;DHT22;20784;51.332;12.410;2023-05-17T14:20:51;18.10;1.00
34542;DHT22;20784;51.332;12.410;2023-05-17T14:23:17;17.90;1.00
34542;DHT22;20784;51.332;12.410;2023-05-17T14:26:03;18.00;1.00
34542;DHT22;20784;51.332;12.410;2023-05-17T14:28:32;18.10;1.00
34542;DHT22;20784;51.332;12.410;2023-05-17T14:30:58;18.20;1.00
34542;DHT22;20784;51.332;12.410;2023-05-17T14:33:23;18.40;1.00
34542;DHT22;20784;51.332;12.410;2023-05-17T14:35:50;18.50;1.00
34542;DHT22;20784;51.332;12.410;2023-05-17T14:38:16;18.60;1.00
34542;DHT22;20784;51.332;12.410;2023-05-17T14:40:42;18.70;1.00
34542;DHT22;20784;51.332;12.410;2023-05-17T14:43:07;18.70;1.00
34542;DHT22;20784;51.332;12.410;2023-05-17T14:45:33;18.80;1.00
34542;DHT22;20784;51.332;12.410;2023-05-17T14:47:59;18.70;1.00
34542;DHT22;20784;51.332;12.410;2023-05-17T14:50:24;18.60;1.00
34542;DHT22;20784;51.332;12.410;2023-05-17T14:52:50;18.40;1.00
34542;DHT22;20784;51.332;12.410;2023-05-17T14:55:16;18.50;1.00
34542;DHT22;20784;51.332;12.410;2023-05-17T14:57:42;18.50;1.00
34542;DHT22;20784;51.332;12.410;2023-05-17T15:00:10;18.20;1.00
34542;DHT22;20784;51.332;12.410;2023-05-17T15:02:42;17.90;1.00
34542;DHT22;20784;51.332;12.410;2023-05-17T15:05:08;17.80;1.00
34542;DHT22;20784;51.332;12.410;2023-05-17T15:07:34;17.70;1.00
34542;DHT22;20784;51.332;12.410;2023-05-17T15:10:01;18.10;1.00
34542;DHT22;20784;51.332;12.410;2023-05-17T15:12:26;18.10;1.00
34542;DHT22;20784;51.332;12.410;2023-05-17T15:14:52;18.00;1.00
34542;DHT22;20784;51.332;12.410;2023-05-17T15:17:18;18.20;1.00
34542;DHT22;20784;51.332;12.410;2023-05-17T15:19:43;18.30;1.00
34542;DHT22;20784;51.332;12.410;2023-05-17T15:22:09;18.20;1.00
34542;DHT22;20784;51.332;12.410;2023-05-17T15:24:34;18.10;1.00
34542;DHT22;20784;51.332;12.410;2023-05-17T15:27:04;18.00;1.00
34542;DHT22;20784;51.332;12.410;2023-05-17T15:29:30;17.70;1.00
34542;DHT22;20784;51.332;12.410;2023-05-17T15:31:56;17.60;1.00
34542;DHT22;20784;51.332;12.410;2023-05-17T15:34:24;17.50;1.00
34542;DHT22;20784;51.332;12.410;2023-05-17T15:36:54;17.50;1.00
34542;DHT22;20784;51.332;12.410;2023-05-17T15:39:20;17.40;1.00
34542;DHT22;20784;51.332;12.410;2023-05-17T15:41:46;17.40;1.00
34542;DHT22;20784;51.332;12.410;2023-05-17T15:44:11;17.50;1.00
34542;DHT22;20784;51.332;12.410;2023-05-17T15:46:37;17.50;1.00
34542;DHT22;20784;51.332;12.410;2023-05-17T15:49:09;17.40;1.00
34542;DHT22;20784;51.332;12.410;2023-05-17T15:51:35;17.30;1.00
34542;DHT22;20784;51.332;12.410;2023-05-17T15:54:00;17.30;1.00
34542;DHT22;20784;51.332;12.410;2023-05-17T15:56:26;17.50;1.00
34542;DHT22;20784;51.332;12.410;2023-05-17T15:59:00;17.50;1.00
34542;DHT22;20784;51.332;12.410;2023-05-17T16:04:19;17.50;1.00
34542;DHT22;20784;51.332;12.410;2023-05-17T16:06:45;17.60;1.00
34542;DHT22;20784;51.332;12.410;2023-05-17T16:09:11;17.60;1.00